Time;durP1;ratioP1;P1;durP2;ratioP2;P2;SDS_P1;SDS_P2;PMS_P1;PMS_P2;Temp;Humidity;BMP_temperature;BMP_pressure;BME280_temperature;BME280_humidity;BME280_pressure;Samples;Min_cycle;Max_cycle;Signal;HPM_P1;HPM_P2
2021/01/11 00:00:22;;;;;;;101.10;51.30;;;-5.20;98.90;;;;;;4903803;28;20710;-73
2021/01/11 00:02:44;;;;;;;103.77;53.23;;;-5.20;98.60;;;;;;4904924;28;20621;-76
2021/01/11 00:05:08;;;;;;;110.57;56.00;;;-5.20;98.50;;;;;;4881444;28;20642;-74
2021/01/11 00:07:30;;;;;;;111.60;56.70;;;-5.20;98.60;;;;;;4904144;28;20610;-74
2021/01/11 00:09:52;;;;;;;114.03;56.27;;;-5.20;98.80;;;;;;4909021;28;20658;-75
2021/01/11 00:12:14;;;;;;;107.37;54.47;;;-5.20;98.60;;;;;;4904692;28;20673;-73
2021/01/11 00:14:36;;;;;;;110.67;56.67;;;-5.20;98.60;;;;;;4905629;28;20628;-74
2021/01/11 00:16:59;;;;;;;120.47;59.33;;;-5.30;98.40;;;;;;4907933;28;20619;-75
2021/01/11 00:19:21;;;;;;;123.77;58.73;;;-5.40;97.90;;;;;;4904846;28;20667;-74
2021/01/11 00:21:46;;;;;;;130.73;63.17;;;-5.30;98.10;;;;;;4908004;28;20637;-77
2021/01/11 00:24:08;;;;;;;131.20;61.73;;;-5.40;97.80;;;;;;4903896;28;20663;-74
2021/01/11 00:26:30;;;;;;;115.07;58.03;;;-5.40;97.60;;;;;;4903693;28;20639;-75
2021/01/11 00:28:52;;;;;;;121.57;58.70;;;-5.40;97.50;;;;;;4904696;28;21048;-74
2021/01/11 00:31:22;;;;;;;120.20;57.50;;;-5.50;97.40;;;;;;4903831;28;20682;-75
2021/01/11 00:33:45;;;;;;;121.03;61.40;;;-5.50;97.40;;;;;;4902279;28;20637;-75
2021/01/11 00:36:12;;;;;;;131.17;62.90;;;-5.50;97.30;;;;;;4905646;28;20658;-74
2021/01/11 00:38:34;;;;;;;125.27;60.77;;;-5.60;97.30;;;;;;4899619;28;20649;-73
2021/01/11 00:40:56;;;;;;;133.73;62.53;;;-5.60;97.60;;;;;;4886743;28;20671;-74
2021/01/11 00:43:18;;;;;;;126.07;58.60;;;-5.60;97.40;;;;;;4905142;28;20621;-73
2021/01/11 00:45:40;;;;;;;130.87;61.33;;;-5.60;97.50;;;;;;4906675;28;20643;-74
2021/01/11 00:48:02;;;;;;;124.30;57.80;;;-5.70;96.90;;;;;;4901805;28;20678;-73
2021/01/11 00:50:25;;;;;;;129.37;59.03;;;-5.70;96.70;;;;;;4907118;28;20737;-73
2021/01/11 00:52:48;;;;;;;129.37;60.20;;;-5.70;96.60;;;;;;4901716;28;20683;-73
2021/01/11 00:55:18;;;;;;;128.10;60.97;;;-5.70;97.10;;;;;;4902687;28;20610;-73
2021/01/11 00:57:49;;;;;;;116.83;56.63;;;-5.80;97.40;;;;;;4886893;28;20703;-75
2021/01/11 01:00:17;;;;;;;125.40;59.73;;;-5.70;97.00;;;;;;4881447;28;20716;-74
2021/01/11 01:02:49;;;;;;;147.30;65.80;;;-5.80;97.10;;;;;;4900593;28;20691;-73
2021/01/11 01:05:14;;;;;;;143.03;67.23;;;-5.90;96.50;;;;;;4885512;28;20678;-74
2021/01/11 01:07:38;;;;;;;132.93;63.53;;;-5.90;96.30;;;;;;4904561;28;21036;-74
2021/01/11 01:10:00;;;;;;;135.97;67.10;;;-5.90;96.30;;;;;;4906268;28;20948;-75
2021/01/11 01:12:22;;;;;;;130.10;62.57;;;-6.00;96.20;;;;;;4909987;28;20987;-73
2021/01/11 01:14:45;;;;;;;137.33;65.27;;;-6.00;96.20;;;;;;4903468;28;20608;-77
2021/01/11 01:17:07;;;;;;;139.43;64.20;;;-6.00;96.10;;;;;;4903453;28;20614;-73
2021/01/11 01:19:29;;;;;;;139.13;65.27;;;-6.10;96.30;;;;;;4910214;28;21265;-74
2021/01/11 01:21:51;;;;;;;126.77;61.37;;;-6.20;96.10;;;;;;4902829;28;20613;-75
2021/01/11 01:24:14;;;;;;;141.57;65.03;;;-6.10;96.30;;;;;;4908518;28;20609;-73
2021/01/11 01:26:36;;;;;;;143.53;67.07;;;-6.20;96.40;;;;;;4905380;28;20605;-74
2021/01/11 01:28:58;;;;;;;148.57;70.93;;;-6.20;96.50;;;;;;4903786;28;20656;-75
2021/01/11 01:31:20;;;;;;;142.03;65.13;;;-6.20;96.60;;;;;;4903259;28;20971;-75
2021/01/11 01:33:42;;;;;;;142.83;66.40;;;-6.30;96.60;;;;;;4895816;28;20686;-73
2021/01/11 01:36:05;;;;;;;160.27;72.43;;;-6.30;96.60;;;;;;4904839;28;20670;-73
2021/01/11 01:38:28;;;;;;;163.53;73.10;;;-6.30;96.60;;;;;;4898494;28;20624;-72
2021/01/11 01:40:51;;;;;;;133.80;64.03;;;-6.40;96.50;;;;;;4904280;28;20729;-74
2021/01/11 01:43:13;;;;;;;134.87;63.27;;;-6.40;96.40;;;;;;4902125;28;20621;-74
2021/01/11 01:45:36;;;;;;;162.10;77.33;;;-6.40;96.20;;;;;;4902192;28;20987;-74
2021/01/11 01:47:58;;;;;;;158.53;76.50;;;-6.50;95.70;;;;;;4890919;28;20683;-75
2021/01/11 01:50:20;;;;;;;148.87;73.73;;;-6.40;95.20;;;;;;4901170;28;20618;-73
2021/01/11 01:52:43;;;;;;;164.50;73.00;;;-6.50;95.30;;;;;;4904451;28;20643;-73
2021/01/11 01:55:07;;;;;;;158.03;70.40;;;-6.50;95.40;;;;;;4898117;28;20973;-74
2021/01/11 01:57:30;;;;;;;151.80;70.83;;;-6.60;95.60;;;;;;4903581;28;20629;-73
2021/01/11 01:59:53;;;;;;;151.97;71.13;;;-6.50;95.80;;;;;;4898457;28;20698;-77
2021/01/11 02:02:18;;;;;;;151.57;70.67;;;-6.60;96.00;;;;;;4887992;28;20665;-74
2021/01/11 02:04:40;;;;;;;150.77;71.67;;;-6.50;96.40;;;;;;4899216;28;20679;-74
2021/01/11 02:07:11;;;;;;;157.83;75.33;;;-6.50;96.60;;;;;;4904718;28;21124;-74
2021/01/11 02:09:42;;;;;;;150.63;72.47;;;-6.50;96.60;;;;;;4904151;28;20621;-73
2021/01/11 02:12:13;;;;;;;146.27;69.67;;;-6.50;96.80;;;;;;4905031;28;20685;-73
2021/01/11 02:14:48;;;;;;;152.10;68.17;;;-6.50;96.40;;;;;;4905566;28;20612;-73
2021/01/11 02:17:16;;;;;;;141.23;66.37;;;-6.60;96.20;;;;;;4900633;28;20629;-74
2021/01/11 02:20:20;;;;;;;141.67;71.33;;;-6.60;95.90;;;;;;4903505;28;20996;-74
2021/01/11 02:22:47;;;;;;;149.60;71.30;;;-6.60;95.80;;;;;;4899519;28;21125;-74
2021/01/11 02:25:35;;;;;;;155.93;71.33;;;-6.60;95.70;;;;;;4908684;28;20609;-74
2021/01/11 02:27:59;;;;;;;141.23;69.63;;;-6.60;95.80;;;;;;4912626;28;20585;-74
2021/01/11 02:30:31;;;;;;;149.57;69.27;;;-6.60;95.60;;;;;;4908448;28;20644;-74
2021/01/11 02:32:56;;;;;;;143.70;69.47;;;-6.60;96.00;;;;;;4908688;28;21036;-76
2021/01/11 02:35:21;;;;;;;140.63;68.97;;;-6.60;95.50;;;;;;4906313;28;20617;-74
2021/01/11 02:37:43;;;;;;;147.80;70.53;;;-6.60;95.70;;;;;;4904650;28;20625;-73
2021/01/11 02:40:08;;;;;;;148.33;67.97;;;-6.70;95.10;;;;;;4907613;28;20632;-74
2021/01/11 02:42:31;;;;;;;153.50;73.27;;;-6.70;95.10;;;;;;4902444;28;20612;-74
2021/01/11 02:44:53;;;;;;;153.77;72.70;;;-6.70;95.20;;;;;;4906168;28;20678;-75
2021/01/11 02:47:20;;;;;;;149.20;72.93;;;-6.70;95.70;;;;;;4906240;28;20648;-74
2021/01/11 02:49:48;;;;;;;144.90;68.33;;;-6.70;96.00;;;;;;4912515;28;20596;-73
2021/01/11 02:52:15;;;;;;;157.17;73.27;;;-6.70;96.10;;;;;;4913605;28;21215;-73
2021/01/11 02:54:42;;;;;;;153.57;72.33;;;-6.70;95.70;;;;;;4910052;28;20939;-74
2021/01/11 02:57:13;;;;;;;142.03;69.47;;;-6.70;95.80;;;;;;4908916;28;20638;-73
2021/01/11 02:59:40;;;;;;;148.03;69.50;;;-6.70;95.80;;;;;;4888574;28;21060;-73
2021/01/11 03:02:07;;;;;;;158.43;71.53;;;-6.80;95.60;;;;;;4901263;28;20681;-73
2021/01/11 03:04:32;;;;;;;137.90;68.43;;;-6.80;95.30;;;;;;4905669;28;20609;-73
2021/01/11 03:06:57;;;;;;;137.77;65.50;;;-6.80;95.10;;;;;;4907475;28;20634;-74
2021/01/11 03:09:19;;;;;;;142.87;67.80;;;-6.90;94.90;;;;;;4905440;28;21222;-74
2021/01/11 03:11:41;;;;;;;149.20;70.33;;;-6.90;94.80;;;;;;4908190;28;20613;-74
2021/01/11 03:14:04;;;;;;;130.07;67.27;;;-6.90;94.80;;;;;;4906303;28;20667;-73
2021/01/11 03:16:26;;;;;;;147.83;68.60;;;-6.90;95.10;;;;;;4907695;28;20628;-73
2021/01/11 03:18:48;;;;;;;156.23;71.30;;;-6.90;95.50;;;;;;4890111;28;20657;-73
2021/01/11 03:21:11;;;;;;;152.63;72.73;;;-6.90;96.30;;;;;;4906539;28;20629;-73
2021/01/11 03:23:33;;;;;;;143.80;69.10;;;-6.80;96.70;;;;;;4908264;28;20609;-73
2021/01/11 03:25:56;;;;;;;139.33;67.13;;;-6.60;98.40;;;;;;4910689;28;20650;-74
2021/01/11 03:28:18;;;;;;;143.97;69.40;;;-6.70;98.50;;;;;;4882709;28;20623;-74
2021/01/11 03:30:40;;;;;;;145.10;69.43;;;-6.60;99.60;;;;;;4908874;28;20983;-75
2021/01/11 03:33:02;;;;;;;145.20;68.67;;;-6.40;99.90;;;;;;4905292;28;20630;-73
2021/01/11 03:35:24;;;;;;;141.23;68.83;;;-6.40;99.90;;;;;;4905944;28;20656;-73
2021/01/11 03:37:47;;;;;;;144.80;73.43;;;-6.40;99.90;;;;;;4906577;28;20677;-72
2021/01/11 03:40:10;;;;;;;152.47;75.93;;;-6.30;99.90;;;;;;4905560;28;20645;-73
2021/01/11 03:42:36;;;;;;;156.37;74.97;;;-6.20;99.90;;;;;;4902700;28;20675;-72
2021/01/11 03:44:58;;;;;;;155.13;74.13;;;-6.10;99.90;;;;;;4914905;28;20628;-73
2021/01/11 03:47:20;;;;;;;152.97;75.97;;;-6.00;99.90;;;;;;4886529;28;20622;-73
2021/01/11 03:49:42;;;;;;;148.27;73.10;;;-5.90;99.90;;;;;;4907209;28;20628;-73
2021/01/11 03:52:05;;;;;;;147.27;73.20;;;-5.70;99.90;;;;;;4898748;28;20652;-73
2021/01/11 03:54:28;;;;;;;145.20;76.40;;;-5.60;99.90;;;;;;4902762;28;20606;-73
2021/01/11 03:56:51;;;;;;;142.73;72.37;;;-5.50;99.90;;;;;;4904435;28;20606;-74
2021/01/11 03:59:13;;;;;;;135.40;66.37;;;-5.40;99.90;;;;;;4906050;28;20602;-73
2021/01/11 04:01:37;;;;;;;128.97;65.10;;;-5.30;99.90;;;;;;4907953;28;20694;-74
2021/01/11 04:03:59;;;;;;;133.10;66.07;;;-5.20;99.90;;;;;;4899897;28;20606;-74
2021/01/11 04:06:22;;;;;;;134.67;67.87;;;-5.20;99.90;;;;;;4903225;28;20641;-73
2021/01/11 04:08:44;;;;;;;129.33;64.40;;;-5.20;99.90;;;;;;4905314;28;20721;-73
2021/01/11 04:11:08;;;;;;;134.03;64.80;;;-5.10;99.90;;;;;;4904540;28;20613;-73
2021/01/11 04:13:30;;;;;;;133.43;64.57;;;-5.20;99.90;;;;;;4911405;28;20601;-73
2021/01/11 04:15:52;;;;;;;131.63;66.30;;;-5.20;99.50;;;;;;4904015;28;20634;-74
2021/01/11 04:18:14;;;;;;;131.97;67.27;;;-5.20;98.70;;;;;;4896730;28;20649;-73
2021/01/11 04:20:36;;;;;;;130.20;64.47;;;-5.10;97.80;;;;;;4900743;28;20637;-73
2021/01/11 04:22:58;;;;;;;130.67;63.43;;;-5.20;97.90;;;;;;4908574;28;20617;-74
2021/01/11 04:25:22;;;;;;;140.57;67.77;;;-5.20;98.20;;;;;;4886970;28;20629;-73
2021/01/11 04:27:45;;;;;;;128.33;64.33;;;-5.20;97.90;;;;;;4905867;28;20624;-73
2021/01/11 04:30:08;;;;;;;130.53;64.13;;;-5.10;98.30;;;;;;4904062;28;20641;-73
2021/01/11 04:32:30;;;;;;;133.50;69.17;;;-5.00;98.40;;;;;;4899592;28;20655;-73
2021/01/11 04:34:52;;;;;;;124.90;63.93;;;-5.00;98.60;;;;;;4906990;28;21173;-75
2021/01/11 04:37:15;;;;;;;125.13;63.17;;;-4.90;98.80;;;;;;4910638;28;20612;-73
2021/01/11 04:39:37;;;;;;;137.00;65.57;;;-4.80;99.10;;;;;;4901990;28;20625;-74
2021/01/11 04:42:01;;;;;;;131.27;65.13;;;-4.70;99.30;;;;;;4903916;28;20605;-74
2021/01/11 04:44:25;;;;;;;138.13;69.97;;;-4.50;99.30;;;;;;4905120;28;21194;-73
2021/01/11 04:46:48;;;;;;;140.83;68.60;;;-4.50;99.40;;;;;;4890494;28;20763;-74
2021/01/11 04:49:11;;;;;;;130.60;66.20;;;-4.40;99.30;;;;;;4903626;28;20617;-73
2021/01/11 04:51:33;;;;;;;132.63;65.77;;;-4.30;99.10;;;;;;4903657;28;20950;-74
2021/01/11 04:53:58;;;;;;;135.50;67.90;;;-4.10;98.40;;;;;;4903094;28;21161;-74
2021/01/11 04:56:20;;;;;;;131.47;66.57;;;-4.20;98.40;;;;;;4899719;28;20663;-73
2021/01/11 04:58:58;;;;;;;128.00;64.93;;;-4.10;97.90;;;;;;4907774;28;20614;-73
2021/01/11 05:01:23;;;;;;;133.63;65.77;;;-4.00;96.80;;;;;;4907417;28;20620;-73
2021/01/11 05:03:45;;;;;;;142.37;70.47;;;-3.90;96.30;;;;;;4906576;28;20588;-73
2021/01/11 05:06:08;;;;;;;142.03;73.23;;;-3.90;95.90;;;;;;4907411;28;20617;-74
2021/01/11 05:08:30;;;;;;;140.83;70.43;;;-3.80;94.90;;;;;;4906356;28;21149;-74
2021/01/11 05:10:52;;;;;;;128.17;63.77;;;-3.70;91.70;;;;;;4907052;28;20621;-75
2021/01/11 05:13:15;;;;;;;135.90;67.37;;;-3.70;91.70;;;;;;4903682;28;20618;-73
2021/01/11 05:15:38;;;;;;;141.13;68.20;;;-3.60;91.10;;;;;;4904944;28;20612;-74
2021/01/11 05:18:02;;;;;;;136.10;68.57;;;-3.60;90.40;;;;;;4911690;28;20721;-74
2021/01/11 05:20:26;;;;;;;136.20;69.53;;;-3.50;89.10;;;;;;4911246;28;20741;-74
2021/01/11 05:22:48;;;;;;;138.53;68.47;;;-3.50;77.20;;;;;;4907341;28;20604;-74
2021/01/11 05:25:13;;;;;;;141.13;69.80;;;-3.50;76.60;;;;;;4902874;28;21006;-74
2021/01/11 05:27:35;;;;;;;143.90;68.67;;;-3.50;67.40;;;;;;4906160;28;21222;-73
2021/01/11 05:29:57;;;;;;;144.20;70.17;;;-3.50;62.70;;;;;;4902397;28;20699;-74
2021/01/11 05:32:26;;;;;;;147.97;70.83;;;-3.50;60.80;;;;;;4903570;28;20602;-74
2021/01/11 05:34:50;;;;;;;142.97;73.00;;;-3.50;60.40;;;;;;4902684;28;21214;-74
2021/01/11 05:37:31;;;;;;;150.77;72.57;;;-3.50;51.00;;;;;;4909962;28;21016;-74
2021/01/11 05:40:03;;;;;;;144.70;71.73;;;-3.50;51.10;;;;;;4908458;28;20724;-75
2021/01/11 05:42:25;;;;;;;147.37;72.83;;;-3.40;52.90;;;;;;4905551;28;20645;-73
2021/01/11 05:44:47;;;;;;;140.77;72.03;;;-3.40;54.80;;;;;;4900860;28;20660;-73
2021/01/11 05:47:10;;;;;;;146.50;72.83;;;-3.40;55.20;;;;;;4907784;28;20602;-75
2021/01/11 05:49:32;;;;;;;143.23;72.83;;;-3.30;56.10;;;;;;4890536;28;20747;-74
2021/01/11 05:51:55;;;;;;;147.00;70.47;;;-3.30;56.50;;;;;;4901336;28;20673;-75
2021/01/11 05:54:27;;;;;;;140.87;70.40;;;-3.20;52.60;;;;;;4907310;28;20730;-73
2021/01/11 05:56:54;;;;;;;141.33;70.37;;;-3.20;53.00;;;;;;4903603;28;20663;-74
2021/01/11 05:59:16;;;;;;;144.97;71.77;;;-3.20;51.30;;;;;;4907863;28;21173;-75
2021/01/11 06:01:38;;;;;;;134.17;66.57;;;-3.20;47.60;;;;;;4907095;28;20640;-73
2021/01/11 06:04:00;;;;;;;133.07;67.60;;;-3.20;47.40;;;;;;4889028;28;20641;-73
2021/01/11 06:06:23;;;;;;;134.33;68.97;;;-3.20;46.00;;;;;;4907148;28;20640;-73
2021/01/11 06:08:47;;;;;;;139.63;69.83;;;-3.20;45.70;;;;;;4905576;28;20655;-74
2021/01/11 06:11:11;;;;;;;133.43;64.80;;;-3.20;45.40;;;;;;4907966;28;20605;-74
2021/01/11 06:13:33;;;;;;;138.47;66.63;;;-3.10;40.30;;;;;;4906271;28;20621;-74
2021/01/11 06:15:58;;;;;;;127.93;65.23;;;-3.30;35.70;;;;;;4889882;28;21197;-75
2021/01/11 06:18:22;;;;;;;135.57;67.80;;;-3.30;34.60;;;;;;4907039;28;21265;-73
2021/01/11 06:20:46;;;;;;;127.30;62.00;;;-3.30;35.20;;;;;;4908176;28;21007;-73
2021/01/11 06:23:09;;;;;;;125.03;59.97;;;-3.30;39.30;;;;;;4905918;28;20626;-73
2021/01/11 06:25:39;;;;;;;124.03;59.43;;;-3.30;39.80;;;;;;4905927;28;20620;-74
2021/01/11 06:28:02;;;;;;;124.53;62.17;;;-3.20;40.20;;;;;;4900743;28;21160;-74
2021/01/11 06:30:34;;;;;;;122.07;67.03;;;-3.20;39.50;;;;;;4907416;28;20648;-74
2021/01/11 06:32:57;;;;;;;132.00;63.87;;;-3.20;39.20;;;;;;4910045;28;20602;-75
2021/01/11 06:35:29;;;;;;;123.73;61.57;;;-3.20;39.60;;;;;;4908798;28;20605;-73
2021/01/11 06:38:06;;;;;;;132.53;63.37;;;-3.20;38.50;;;;;;4897410;28;20630;-75
2021/01/11 06:40:28;;;;;;;122.40;61.17;;;-3.10;39.60;;;;;;4904194;28;20613;-74
2021/01/11 06:42:58;;;;;;;121.67;60.40;;;-3.10;39.00;;;;;;4909871;28;20698;-74
2021/01/11 06:45:34;;;;;;;130.37;63.50;;;-3.10;37.40;;;;;;4900613;28;20621;-74
2021/01/11 06:48:02;;;;;;;132.07;61.90;;;-3.10;36.00;;;;;;4909667;28;20662;-74
2021/01/11 06:50:25;;;;;;;125.93;62.80;;;-3.10;35.20;;;;;;4908311;28;21167;-74
2021/01/11 06:52:49;;;;;;;126.83;63.00;;;-3.00;34.30;;;;;;4909523;28;20610;-73
2021/01/11 06:55:12;;;;;;;132.83;60.07;;;-3.00;24.30;;;;;;4899286;28;21169;-74
2021/01/11 06:57:36;;;;;;;122.13;62.20;;;-3.00;23.60;;;;;;4910769;28;20647;-75
2021/01/11 07:00:07;;;;;;;137.23;72.43;;;-2.90;24.10;;;;;;4906013;28;20655;-74
2021/01/11 07:02:29;;;;;;;128.90;63.93;;;-3.00;24.60;;;;;;4901563;28;20633;-74
2021/01/11 07:04:52;;;;;;;129.57;65.30;;;-2.90;26.60;;;;;;4905883;28;20597;-76
2021/01/11 07:07:23;;;;;;;130.97;63.47;;;-2.80;26.40;;;;;;4906933;28;20643;-73
2021/01/11 07:09:56;;;;;;;129.37;64.30;;;-2.70;25.70;;;;;;4905456;28;21444;-73
2021/01/11 07:12:19;;;;;;;136.97;64.17;;;-2.80;25.80;;;;;;4911066;28;20617;-73
2021/01/11 07:15:03;;;;;;;159.17;75.40;;;-2.70;24.30;;;;;;4913718;28;21012;-74
2021/01/11 07:17:39;;;;;;;144.97;72.67;;;-2.80;24.20;;;;;;4905402;28;20659;-74
2021/01/11 07:20:02;;;;;;;139.57;70.60;;;-2.70;23.60;;;;;;4907027;28;20643;-74
2021/01/11 07:22:24;;;;;;;144.73;71.73;;;-2.70;21.50;;;;;;4909043;28;20633;-75
2021/01/11 07:24:46;;;;;;;140.10;71.33;;;-2.60;19.20;;;;;;4905201;28;20625;-74
2021/01/11 07:27:08;;;;;;;135.53;70.37;;;-2.70;17.40;;;;;;4909986;28;20651;-73
2021/01/11 07:29:30;;;;;;;139.63;70.57;;;-2.60;17.50;;;;;;4890270;28;21058;-74
2021/01/11 07:31:53;;;;;;;141.13;70.47;;;-2.60;18.00;;;;;;4909149;28;20978;-75
2021/01/11 07:34:17;;;;;;;130.80;65.70;;;-2.60;18.10;;;;;;4906929;28;20658;-73
2021/01/11 07:36:41;;;;;;;137.53;69.13;;;-2.50;7.90;;;;;;4928224;28;20606;-74
2021/01/11 07:39:15;;;;;;;140.83;71.63;;;-2.50;7.00;;;;;;4893681;28;21265;-74
2021/01/11 07:41:39;;;;;;;141.17;72.10;;;-2.50;4.00;;;;;;4905928;28;20643;-74
2021/01/11 07:44:12;;;;;;;124.00;60.17;;;-2.50;3.30;;;;;;4908224;28;20652;-74
2021/01/11 07:46:34;;;;;;;120.07;61.53;;;-2.50;3.70;;;;;;4907405;28;20681;-74
2021/01/11 07:49:11;;;;;;;127.20;66.60;;;-2.40;1.00;;;;;;4905817;28;21162;-75
2021/01/11 07:51:35;;;;;;;118.53;59.37;;;-2.40;1.00;;;;;;4906808;28;20904;-73
2021/01/11 07:53:58;;;;;;;115.90;58.53;;;-2.40;1.00;;;;;;4907763;28;21198;-75
2021/01/11 07:56:21;;;;;;;113.57;56.63;;;-2.30;1.00;;;;;;4903832;28;20693;-73
2021/01/11 07:58:52;;;;;;;112.83;57.53;;;-2.30;1.00;;;;;;4889797;28;20614;-74
2021/01/11 08:01:16;;;;;;;111.77;57.97;;;-2.20;1.00;;;;;;4904074;28;20644;-74
2021/01/11 08:03:38;;;;;;;105.00;56.77;;;-2.20;1.00;;;;;;4911760;28;20625;-74
2021/01/11 08:06:02;;;;;;;106.30;56.23;;;-2.20;1.00;;;;;;4904096;28;20602;-72
2021/01/11 08:08:27;;;;;;;107.20;57.23;;;-2.10;1.00;;;;;;4903997;28;20612;-72
2021/01/11 08:10:49;;;;;;;102.20;53.77;;;-2.10;1.00;;;;;;4908629;28;20633;-72
2021/01/11 08:13:12;;;;;;;108.57;55.30;;;-2.00;1.00;;;;;;4901665;28;20632;-74
2021/01/11 08:15:34;;;;;;;105.70;52.93;;;-2.00;1.00;;;;;;4898582;28;20612;-71
2021/01/11 08:17:57;;;;;;;102.47;52.63;;;-1.70;1.00;;;;;;4900130;28;21207;-73
2021/01/11 08:20:24;;;;;;;98.37;51.50;;;-1.90;1.00;;;;;;4903168;28;20666;-73
2021/01/11 08:22:47;;;;;;;95.23;51.60;;;-1.80;1.00;;;;;;4897277;28;20657;-78
2021/01/11 08:25:11;;;;;;;95.20;50.00;;;-1.80;1.00;;;;;;4910159;28;21149;-71
2021/01/11 08:27:36;;;;;;;85.27;47.30;;;-1.70;1.00;;;;;;4902712;28;21240;-72
2021/01/11 08:30:01;;;;;;;88.17;48.13;;;-1.60;1.00;;;;;;4906730;28;20668;-74
2021/01/11 08:32:23;;;;;;;107.37;51.83;;;-1.60;1.00;;;;;;4902941;28;20613;-76
2021/01/11 08:34:46;;;;;;;98.63;51.07;;;-1.50;1.00;;;;;;4915508;28;21009;-72
2021/01/11 08:37:22;;;;;;;99.33;52.07;;;-1.50;1.00;;;;;;4894448;28;20668;-72
2021/01/11 08:39:55;;;;;;;100.33;50.80;;;-1.50;1.00;;;;;;4903681;28;21133;-74
2021/01/11 08:42:19;;;;;;;94.73;45.50;;;-1.30;1.00;;;;;;4901002;28;20982;-73
2021/01/11 08:44:41;;;;;;;120.93;58.77;;;-1.30;1.00;;;;;;4913625;28;21149;-73
2021/01/11 08:47:08;;;;;;;104.47;54.30;;;-1.20;1.00;;;;;;4904628;28;20609;-71
2021/01/11 08:49:30;;;;;;;94.80;50.50;;;-1.30;1.00;;;;;;4899747;28;21277;-72
2021/01/11 08:51:53;;;;;;;94.20;51.67;;;-1.30;1.00;;;;;;4913157;28;20616;-72
2021/01/11 08:54:31;;;;;;;94.67;52.10;;;-1.30;1.00;;;;;;4904502;28;21284;-71
2021/01/11 08:56:55;;;;;;;99.70;52.80;;;-1.20;1.00;;;;;;4897946;28;20617;-72
2021/01/11 08:59:18;;;;;;;97.70;51.57;;;-1.00;1.00;;;;;;4899752;28;20713;-72
2021/01/11 09:01:42;;;;;;;98.03;52.67;;;-0.80;1.00;;;;;;4903734;28;21241;-72
2021/01/11 09:04:07;;;;;;;95.83;51.30;;;-0.80;1.00;;;;;;4911111;28;20646;-72
2021/01/11 09:06:36;;;;;;;101.17;55.40;;;-0.60;1.00;;;;;;4904260;28;20645;-72
2021/01/11 09:09:05;;;;;;;94.77;52.50;;;-0.40;1.00;;;;;;4899081;28;20621;-76
2021/01/11 09:11:27;;;;;;;98.00;53.33;;;0.10;1.00;;;;;;4900487;28;20674;-74
2021/01/11 09:14:04;;;;;;;90.40;49.57;;;0.00;1.00;;;;;;4899946;28;20735;-72
2021/01/11 09:16:32;;;;;;;93.67;52.27;;;0.30;1.00;;;;;;4910412;28;21012;-73
2021/01/11 09:19:05;;;;;;;93.93;49.63;;;0.40;99.90;;;;;;4901941;28;20679;-72
2021/01/11 09:21:27;;;;;;;82.27;47.33;;;0.60;1.00;;;;;;4904669;28;20671;-72
2021/01/11 09:23:50;;;;;;;93.90;48.37;;;0.80;1.00;;;;;;4910841;28;21181;-72
2021/01/11 09:26:13;;;;;;;81.73;47.53;;;1.30;1.00;;;;;;4906543;28;20652;-72
2021/01/11 09:28:35;;;;;;;80.00;46.87;;;1.40;1.00;;;;;;4900143;28;20228;-72
2021/01/11 09:30:58;;;;;;;78.03;46.73;;;1.70;1.00;;;;;;4903840;28;20245;-73
2021/01/11 09:33:20;;;;;;;78.10;45.13;;;2.00;1.00;;;;;;4893583;28;20285;-72
2021/01/11 09:35:42;;;;;;;81.83;47.43;;;2.20;99.90;;;;;;4904360;28;20196;-71
2021/01/11 09:38:04;;;;;;;71.80;44.53;;;2.40;99.90;;;;;;4902803;28;20233;-72
2021/01/11 09:40:26;;;;;;;74.87;46.27;;;2.50;16.20;;;;;;4897174;28;20188;-72
2021/01/11 09:42:49;;;;;;;75.97;45.10;;;2.50;1.00;;;;;;4911053;28;20219;-71
2021/01/11 09:45:12;;;;;;;77.50;45.80;;;2.40;1.00;;;;;;4907274;28;20230;-73
2021/01/11 09:47:35;;;;;;;72.13;42.47;;;2.60;1.00;;;;;;4912510;28;20192;-72
2021/01/11 09:49:57;;;;;;;72.17;43.30;;;2.90;1.00;;;;;;4911443;28;20237;-76
2021/01/11 09:52:19;;;;;;;71.87;42.27;;;3.20;1.00;;;;;;4904044;28;20188;-72
2021/01/11 09:54:41;;;;;;;70.77;44.93;;;3.30;1.00;;;;;;4902763;28;20199;-72
2021/01/11 09:57:04;;;;;;;70.37;42.93;;;3.50;1.00;;;;;;4903499;28;20542;-72
2021/01/11 09:59:27;;;;;;;66.97;42.07;;;4.40;1.00;;;;;;4903921;28;20195;-72
2021/01/11 10:01:49;;;;;;;69.73;44.67;;;4.50;1.00;;;;;;4903612;28;20610;-72
2021/01/11 10:04:14;;;;;;;61.57;41.10;;;5.20;1.00;;;;;;4896678;28;20193;-72
2021/01/11 10:06:43;;;;;;;59.40;38.90;;;6.30;1.00;;;;;;4891428;28;20946;-71
2021/01/11 10:09:06;;;;;;;56.27;38.07;;;7.10;1.00;;;;;;4905114;28;20197;-72
2021/01/11 10:11:28;;;;;;;54.60;38.17;;;7.40;1.00;;;;;;4905368;28;20249;-72
2021/01/11 10:13:50;;;;;;;52.10;35.23;;;7.30;1.00;;;;;;4905588;28;20544;-74
2021/01/11 10:16:12;;;;;;;52.03;35.67;;;6.50;1.00;;;;;;4902670;28;20188;-72
2021/01/11 10:18:34;;;;;;;57.47;37.53;;;5.90;1.00;;;;;;4905141;28;20316;-72
2021/01/11 10:20:57;;;;;;;56.63;36.47;;;5.80;1.00;;;;;;4906201;28;20180;-73
2021/01/11 10:23:19;;;;;;;59.40;38.43;;;5.40;1.00;;;;;;4906071;28;20746;-72
2021/01/11 10:25:41;;;;;;;62.00;40.07;;;5.00;1.00;;;;;;4897548;28;20240;-71
2021/01/11 10:28:03;;;;;;;54.93;36.83;;;4.70;1.00;;;;;;4907684;28;20244;-71
2021/01/11 10:30:25;;;;;;;59.30;38.13;;;4.40;1.00;;;;;;4905727;28;20289;-73
2021/01/11 10:32:47;;;;;;;56.40;37.03;;;4.20;1.00;;;;;;4906320;28;20181;-71
2021/01/11 10:35:11;;;;;;;57.10;37.27;;;4.00;1.00;;;;;;4896301;28;20204;-72
2021/01/11 10:37:34;;;;;;;59.47;37.33;;;3.70;1.00;;;;;;4911182;28;20238;-72
2021/01/11 10:39:56;;;;;;;62.40;38.93;;;3.60;1.00;;;;;;4907452;28;20219;-72
2021/01/11 10:42:18;;;;;;;60.90;39.07;;;3.40;1.00;;;;;;4912470;28;20212;-72
2021/01/11 10:44:40;;;;;;;65.43;41.50;;;3.40;1.00;;;;;;4903908;28;20189;-75
2021/01/11 10:47:02;;;;;;;64.10;41.10;;;3.40;1.00;;;;;;4905519;28;20241;-72
2021/01/11 10:49:25;;;;;;;65.17;40.17;;;3.40;1.00;;;;;;4911418;28;20257;-72
2021/01/11 10:51:48;;;;;;;63.97;41.20;;;3.40;1.00;;;;;;4902189;28;20192;-71
2021/01/11 10:54:11;;;;;;;62.40;38.90;;;3.50;1.00;;;;;;4912352;28;20601;-71
2021/01/11 10:56:33;;;;;;;61.97;39.10;;;3.60;1.00;;;;;;4903003;28;20208;-71
2021/01/11 10:58:56;;;;;;;59.47;37.80;;;3.70;1.00;;;;;;4904340;28;20567;-71
2021/01/11 11:01:18;;;;;;;61.63;40.13;;;3.70;1.00;;;;;;4911259;28;20646;-71
2021/01/11 11:03:40;;;;;;;60.80;39.53;;;3.70;1.00;;;;;;4914414;28;20200;-71
2021/01/11 11:06:02;;;;;;;61.57;40.17;;;3.70;1.00;;;;;;4900791;28;20200;-71
2021/01/11 11:08:24;;;;;;;59.97;37.27;;;3.80;1.00;;;;;;4903933;28;20192;-71
2021/01/11 11:10:47;;;;;;;56.47;36.80;;;3.80;1.00;;;;;;4907549;28;20192;-71
2021/01/11 11:13:09;;;;;;;59.67;37.27;;;4.00;1.00;;;;;;4907352;28;20187;-71
2021/01/11 11:15:31;;;;;;;56.57;36.13;;;4.10;1.00;;;;;;4903236;28;20262;-71
2021/01/11 11:17:54;;;;;;;57.30;37.30;;;4.30;1.00;;;;;;4904982;28;20204;-71
2021/01/11 11:20:17;;;;;;;55.57;36.37;;;4.40;1.00;;;;;;4906230;28;20200;-71
2021/01/11 11:22:39;;;;;;;56.90;36.83;;;4.30;1.00;;;;;;4908899;28;20208;-71
2021/01/11 11:25:06;;;;;;;61.00;36.27;;;4.40;1.00;;;;;;4911687;28;20562;-71
2021/01/11 11:27:28;;;;;;;54.70;36.13;;;4.50;1.00;;;;;;4903275;28;20231;-71
2021/01/11 11:29:53;;;;;;;50.50;34.40;;;4.40;1.00;;;;;;4910049;28;20211;-72
2021/01/11 11:32:17;;;;;;;54.27;33.60;;;4.40;1.00;;;;;;4902388;28;20234;-71
2021/01/11 11:34:39;;;;;;;53.90;35.77;;;4.40;1.00;;;;;;4911708;28;20246;-70
2021/01/11 11:37:01;;;;;;;53.50;35.33;;;4.40;1.00;;;;;;4898934;28;20298;-72
2021/01/11 11:39:23;;;;;;;52.63;36.10;;;4.40;1.00;;;;;;4909585;28;20189;-71
2021/01/11 11:41:46;;;;;;;51.70;35.10;;;4.50;1.00;;;;;;4906068;28;20213;-72
2021/01/11 11:44:09;;;;;;;50.33;33.77;;;4.50;1.00;;;;;;4896203;28;20247;-71
2021/01/11 11:46:32;;;;;;;53.97;34.13;;;4.60;1.00;;;;;;4905868;28;20254;-71
2021/01/11 11:48:54;;;;;;;53.90;36.17;;;4.60;1.00;;;;;;4904022;28;20193;-73
2021/01/11 11:51:16;;;;;;;54.83;36.13;;;4.70;1.00;;;;;;4910714;28;20196;-72
2021/01/11 11:53:39;;;;;;;55.43;35.80;;;4.90;1.00;;;;;;4906507;28;20245;-73
2021/01/11 11:56:01;;;;;;;53.33;34.47;;;5.10;1.00;;;;;;4903742;28;20196;-72
2021/01/11 11:58:24;;;;;;;50.30;33.20;;;5.50;1.00;;;;;;4903252;28;20238;-72
2021/01/11 12:00:47;;;;;;;46.60;32.07;;;6.70;1.00;;;;;;4897792;28;20702;-72
2021/01/11 12:03:09;;;;;;;42.77;30.80;;;8.20;1.00;;;;;;4879903;28;20229;-72
2021/01/11 12:05:31;;;;;;;36.87;26.77;;;9.90;1.00;;;;;;4882564;28;20224;-74
2021/01/11 12:07:53;;;;;;;33.00;25.27;;;11.40;1.00;;;;;;4881122;28;20189;-72
2021/01/11 12:10:15;;;;;;;23.50;19.53;;;13.40;1.00;;;;;;4887412;28;20181;-71